createdAt,value
2018-05-09T00:01:27.326Z,20.83
2018-05-09T00:03:58.452Z,20.80
2018-05-09T00:06:29.385Z,20.77
2018-05-09T00:09:00.253Z,20.75
2018-05-09T00:11:31.390Z,20.70
2018-05-09T00:14:02.438Z,20.66
2018-05-09T00:16:33.358Z,20.62
2018-05-09T00:19:04.130Z,20.57
2018-05-09T00:21:35.658Z,20.60
2018-05-09T00:24:06.390Z,20.63
2018-05-09T00:26:37.418Z,20.62
2018-05-09T00:29:08.922Z,20.68
2018-05-09T00:31:39.606Z,20.80
2018-05-09T00:34:09.651Z,20.80
2018-05-09T00:36:40.462Z,20.65
2018-05-09T00:39:11.357Z,20.49
2018-05-09T00:41:42.365Z,20.39
2018-05-09T00:44:13.278Z,20.23
2018-05-09T00:46:44.349Z,20.17
2018-05-09T00:49:14.918Z,20.11
2018-05-09T00:51:45.651Z,20.05
2018-05-09T00:54:27.093Z,20.00
2018-05-09T00:56:56.095Z,19.96
2018-05-09T00:59:25.562Z,19.91
2018-05-09T01:01:54.482Z,19.91
2018-05-09T01:04:23.475Z,19.85
2018-05-09T01:06:52.737Z,19.82
2018-05-09T01:09:21.654Z,19.80
2018-05-09T01:11:52.486Z,19.76
2018-05-09T01:14:22.884Z,19.72
2018-05-09T01:16:53.601Z,19.68
2018-05-09T01:19:24.389Z,19.65
2018-05-09T01:21:55.358Z,19.61
2018-05-09T01:24:26.226Z,19.56
2018-05-09T01:26:57.466Z,19.49
2018-05-09T01:29:28.515Z,19.43
2018-05-09T01:31:59.262Z,19.38
2018-05-09T01:34:29.879Z,19.31
2018-05-09T01:37:00.606Z,19.21
2018-05-09T01:39:31.298Z,19.17
2018-05-09T01:42:02.439Z,19.13
2018-05-09T01:44:33.388Z,19.15
2018-05-09T01:47:04.377Z,19.07
2018-05-09T01:49:35.391Z,19.01
2018-05-09T01:52:06.450Z,18.94
2018-05-09T01:54:37.342Z,18.88
2018-05-09T01:57:08.014Z,18.81
2018-05-09T01:59:38.682Z,18.76
2018-05-09T02:02:09.434Z,18.71
2018-05-09T02:04:40.411Z,18.65
2018-05-09T02:07:11.509Z,18.60
2018-05-09T02:09:42.319Z,18.55
2018-05-09T02:12:13.447Z,18.50
2018-05-09T02:14:43.969Z,18.45
2018-05-09T02:17:15.537Z,18.40
2018-05-09T02:19:45.965Z,18.33
2018-05-09T02:22:16.759Z,18.28
2018-05-09T02:24:46.687Z,18.22
2018-05-09T02:27:17.431Z,18.16
2018-05-09T02:29:48.402Z,18.12
2018-05-09T02:32:19.414Z,18.06
2018-05-09T02:34:50.397Z,17.99
2018-05-09T02:37:21.341Z,17.92
2018-05-09T02:39:52.376Z,17.85
2018-05-09T02:42:23.226Z,17.81
2018-05-09T02:44:54.688Z,17.77
2018-05-09T02:47:24.730Z,17.74
2018-05-09T02:49:55.446Z,17.69
2018-05-09T02:52:26.506Z,17.66
2018-05-09T02:54:56.997Z,17.61
2018-05-09T02:57:27.710Z,17.58
2018-05-09T02:59:58.445Z,17.55
2018-05-09T03:02:29.357Z,17.50
2018-05-09T03:05:00.202Z,17.48
2018-05-09T03:07:31.438Z,17.43
2018-05-09T03:10:02.367Z,17.39
2018-05-09T03:12:33.450Z,17.36
2018-05-09T03:15:04.043Z,17.31
2018-05-09T03:17:35.753Z,17.25
2018-05-09T03:20:06.438Z,17.21
2018-05-09T03:22:37.418Z,17.17
2018-05-09T03:25:08.298Z,17.12
2018-05-09T03:27:39.254Z,17.09
2018-05-09T03:30:10.911Z,17.06
2018-05-09T03:32:41.613Z,17.03
2018-05-09T03:35:12.620Z,17.01
2018-05-09T03:37:43.386Z,16.99
2018-05-09T03:40:14.402Z,16.99
2018-05-09T03:42:45.504Z,17.00
2018-05-09T03:45:16.339Z,17.00
2018-05-09T03:47:47.421Z,16.99
2018-05-09T03:50:18.314Z,16.98
2018-05-09T03:52:49.420Z,16.99
2018-05-09T03:55:20.322Z,17.00
2018-05-09T03:57:51.434Z,17.00
2018-05-09T04:00:22.296Z,17.01
2018-05-09T04:03:04.799Z,17.01
2018-05-09T04:05:44.672Z,17.02
2018-05-09T04:08:24.978Z,17.05
2018-05-09T04:10:53.933Z,17.05
2018-05-09T04:13:22.958Z,17.06
2018-05-09T04:15:51.970Z,17.08
2018-05-09T04:18:20.941Z,17.08
2018-05-09T04:20:49.938Z,17.09
2018-05-09T04:23:19.118Z,17.09
2018-05-09T04:25:48.139Z,17.10
2018-05-09T04:28:17.083Z,17.09
2018-05-09T04:30:46.615Z,17.10
2018-05-09T04:33:15.534Z,17.10
2018-05-09T04:35:44.450Z,17.08
2018-05-09T04:38:13.432Z,17.08
2018-05-09T04:40:42.357Z,17.07
2018-05-09T04:43:11.378Z,17.07
2018-05-09T04:45:40.802Z,17.07
2018-05-09T04:48:09.741Z,17.07
2018-05-09T04:50:40.478Z,17.09
2018-05-09T04:53:11.375Z,17.10
2018-05-09T04:55:42.441Z,17.09
2018-05-09T04:58:12.921Z,17.08
2018-05-09T05:00:43.722Z,17.07
2018-05-09T05:03:14.598Z,17.07
2018-05-09T05:05:45.478Z,17.08
2018-05-09T05:08:16.425Z,17.09
2018-05-09T05:10:47.437Z,17.11
2018-05-09T05:13:18.416Z,17.14
2018-05-09T05:15:49.423Z,17.16
2018-05-09T05:18:20.384Z,17.19
2018-05-09T05:20:51.383Z,17.22
2018-05-09T05:23:22.362Z,17.26
2018-05-09T05:25:53.243Z,17.30
2018-05-09T05:28:24.626Z,17.33
2018-05-09T05:30:55.714Z,17.36
2018-05-09T05:33:26.391Z,17.55
2018-05-09T05:35:57.474Z,17.88
2018-05-09T05:38:28.329Z,18.04
2018-05-09T05:40:59.487Z,18.12
2018-05-09T05:43:30.462Z,18.30
2018-05-09T05:46:01.443Z,18.55
2018-05-09T05:48:32.390Z,18.66
2018-05-09T05:51:03.410Z,18.57
2018-05-09T05:53:34.426Z,18.47
2018-05-09T05:56:05.470Z,18.40
2018-05-09T05:58:36.362Z,18.30
2018-05-09T06:01:07.401Z,18.26
2018-05-09T06:03:38.042Z,18.25
2018-05-09T06:06:08.983Z,18.22
2018-05-09T06:08:39.772Z,18.18
2018-05-09T06:11:10.597Z,18.17
2018-05-09T06:13:41.415Z,18.27
2018-05-09T06:16:12.346Z,18.42
2018-05-09T06:18:43.451Z,18.58
2018-05-09T06:21:14.433Z,18.67
2018-05-09T06:23:45.406Z,18.62
2018-05-09T06:26:16.470Z,18.56
2018-05-09T06:28:47.380Z,18.53
2018-05-09T06:31:18.206Z,18.52
2018-05-09T06:33:48.708Z,18.49
2018-05-09T06:36:19.782Z,18.48
2018-05-09T06:38:49.733Z,18.52
2018-05-09T06:41:20.559Z,18.54
2018-05-09T06:43:51.526Z,18.55
2018-05-09T06:46:21.713Z,18.55
2018-05-09T06:48:52.473Z,18.49
2018-05-09T06:51:23.478Z,18.48
2018-05-09T06:53:54.430Z,18.50
2018-05-09T06:56:25.447Z,18.51
2018-05-09T06:58:56.464Z,18.53
2018-05-09T07:01:27.414Z,18.54
2018-05-09T07:03:58.449Z,18.61
2018-05-09T07:06:29.150Z,18.67
2018-05-09T07:08:59.881Z,18.73
2018-05-09T07:11:30.656Z,18.73
2018-05-09T07:14:01.042Z,18.77
2018-05-09T07:16:32.002Z,18.77
2018-05-09T07:19:02.702Z,18.83
2018-05-09T07:21:33.471Z,18.90
2018-05-09T07:24:04.473Z,18.93
2018-05-09T07:26:35.422Z,18.99
2018-05-09T07:29:06.361Z,19.06
2018-05-09T07:31:37.279Z,19.15
2018-05-09T07:34:07.972Z,19.25
2018-05-09T07:36:38.754Z,19.35
2018-05-09T07:39:09.427Z,19.41
2018-05-09T07:41:40.105Z,19.46
2018-05-09T07:44:10.814Z,19.58
2018-05-09T07:46:41.622Z,19.72
2018-05-09T07:49:12.399Z,19.86
2018-05-09T07:51:43.499Z,20.04
2018-05-09T07:54:14.373Z,20.25
2018-05-09T07:56:45.469Z,20.49
2018-05-09T07:59:16.370Z,20.68
2018-05-09T08:01:47.535Z,20.89
2018-05-09T08:04:18.354Z,20.98
2018-05-09T08:06:49.466Z,21.06
2018-05-09T08:09:20.352Z,21.23
2018-05-09T08:11:51.429Z,21.44
2018-05-09T08:14:22.027Z,21.46
2018-05-09T08:16:52.745Z,21.49
2018-05-09T08:19:23.453Z,21.60
2018-05-09T08:21:54.474Z,21.63
2018-05-09T08:24:25.362Z,21.67
2018-05-09T08:26:56.875Z,21.77
2018-05-09T08:29:27.573Z,21.92
2018-05-09T08:31:57.651Z,22.26
2018-05-09T08:34:28.991Z,22.36
2018-05-09T08:37:00.808Z,22.36
2018-05-09T08:39:30.842Z,22.54
2018-05-09T08:42:01.611Z,22.81
2018-05-09T08:44:32.508Z,22.84
2018-05-09T08:47:03.342Z,22.97
2018-05-09T08:49:34.515Z,23.16
2018-05-09T08:52:05.359Z,23.51
2018-05-09T08:54:36.440Z,23.65
2018-05-09T08:57:07.417Z,23.92
2018-05-09T08:59:38.412Z,24.15
2018-05-09T09:02:09.025Z,24.19
2018-05-09T09:04:39.806Z,24.28
2018-05-09T09:07:10.531Z,24.20
2018-05-09T09:09:41.084Z,24.31
2018-05-09T09:12:11.765Z,24.44
2018-05-09T09:14:42.486Z,24.67
2018-05-09T09:17:13.381Z,24.86
2018-05-09T09:19:44.322Z,24.92
2018-05-09T09:22:15.203Z,25.01
2018-05-09T09:24:46.783Z,25.22
2018-05-09T09:27:17.497Z,25.38
2018-05-09T09:29:48.113Z,25.56
2018-05-09T09:32:18.557Z,25.80
2018-05-09T09:34:49.448Z,25.83
2018-05-09T09:37:20.425Z,26.09
2018-05-09T09:39:51.445Z,26.35
2018-05-09T09:42:22.241Z,26.48
2018-05-09T09:44:53.437Z,26.50
2018-05-09T09:47:24.442Z,26.61
2018-05-09T09:49:55.591Z,26.91
2018-05-09T09:52:26.327Z,26.92
2018-05-09T09:54:57.473Z,27.23
2018-05-09T09:57:28.330Z,27.36
2018-05-09T09:59:59.522Z,27.22
2018-05-09T10:02:30.381Z,27.22
2018-05-09T10:05:01.431Z,27.09
2018-05-09T10:07:32.437Z,26.89
2018-05-09T10:10:03.480Z,26.76
2018-05-09T10:12:34.434Z,26.56
2018-05-09T10:15:05.076Z,26.56
2018-05-09T10:17:36.184Z,26.47
2018-05-09T10:20:06.944Z,26.29
2018-05-09T10:22:37.618Z,26.34
2018-05-09T10:25:08.499Z,26.39
2018-05-09T10:27:39.343Z,26.30
2018-05-09T10:30:10.458Z,26.47
2018-05-09T10:32:41.339Z,26.25
2018-05-09T10:35:12.499Z,26.29
2018-05-09T10:37:43.318Z,26.69
2018-05-09T10:40:14.409Z,26.61
2018-05-09T10:42:45.412Z,26.69
2018-05-09T10:45:16.406Z,26.76
2018-05-09T10:47:47.284Z,26.93
2018-05-09T10:50:18.222Z,26.97
2018-05-09T10:52:49.346Z,26.93
2018-05-09T10:55:20.009Z,27.02
2018-05-09T10:57:50.695Z,26.79
2018-05-09T11:00:21.438Z,26.86
2018-05-09T11:02:52.383Z,26.84
2018-05-09T11:05:23.689Z,26.95
2018-05-09T11:07:54.402Z,27.10
2018-05-09T11:10:25.430Z,27.11
2018-05-09T11:12:56.374Z,27.03
2018-05-09T11:15:27.433Z,27.12
2018-05-09T11:17:58.380Z,27.10
2018-05-09T11:20:29.424Z,27.30
2018-05-09T11:22:59.962Z,27.42
2018-05-09T11:25:30.682Z,27.38
2018-05-09T11:28:01.362Z,27.06
2018-05-09T11:30:32.497Z,27.10
2018-05-09T11:33:03.287Z,27.15
2018-05-09T11:35:34.447Z,27.15
2018-05-09T11:38:05.390Z,27.02
2018-05-09T11:40:36.451Z,27.00
2018-05-09T11:43:07.417Z,26.84
2018-05-09T11:45:38.543Z,26.80
2018-05-09T11:48:09.382Z,26.88
2018-05-09T11:50:40.420Z,26.91
2018-05-09T11:53:11.333Z,26.81
2018-05-09T11:55:42.452Z,26.75
2018-05-09T11:58:13.399Z,26.77
2018-05-09T12:00:44.437Z,26.76
2018-05-09T12:03:15.394Z,26.76
2018-05-09T12:05:46.379Z,26.75
2018-05-09T12:08:17.373Z,26.96
2018-05-09T12:10:48.040Z,26.98
2018-05-09T12:13:18.742Z,26.96
2018-05-09T12:15:49.479Z,27.22
2018-05-09T12:18:20.272Z,27.50
2018-05-09T12:20:51.391Z,27.55
2018-05-09T12:23:22.047Z,27.59
2018-05-09T12:25:52.744Z,27.47
2018-05-09T12:28:23.498Z,27.13
2018-05-09T12:30:54.367Z,27.12
2018-05-09T12:33:25.489Z,27.15
2018-05-09T12:35:56.372Z,27.18
2018-05-09T12:38:27.290Z,26.94
2018-05-09T12:40:58.341Z,27.12
2018-05-09T12:43:29.426Z,26.95
2018-05-09T12:46:00.408Z,26.92
2018-05-09T12:48:31.497Z,26.91
2018-05-09T12:51:02.179Z,27.01
2018-05-09T12:53:33.702Z,26.92
2018-05-09T12:56:04.469Z,26.86
2018-05-09T12:58:35.378Z,26.89
2018-05-09T13:01:06.423Z,26.86
2018-05-09T13:03:37.415Z,26.93
2018-05-09T13:06:08.463Z,26.88
2018-05-09T13:08:39.416Z,27.01
2018-05-09T13:11:10.419Z,27.13
2018-05-09T13:13:41.402Z,27.28
2018-05-09T13:16:12.578Z,27.34
2018-05-09T13:18:43.397Z,27.43
2018-05-09T13:21:14.374Z,27.40
2018-05-09T13:23:45.346Z,27.47
2018-05-09T13:26:16.481Z,27.41
2018-05-09T13:28:47.201Z,27.36
2018-05-09T13:31:17.998Z,27.27
2018-05-09T13:33:48.737Z,27.29
2018-05-09T13:36:19.490Z,27.40
2018-05-09T13:38:50.398Z,27.42
2018-05-09T13:41:21.386Z,27.71
2018-05-09T13:43:52.378Z,27.99
2018-05-09T13:46:23.097Z,28.22
2018-05-09T13:48:53.876Z,28.43
2018-05-09T13:51:24.667Z,28.53
2018-05-09T13:53:54.808Z,28.76
2018-05-09T13:56:25.686Z,28.84
2018-05-09T13:58:56.506Z,28.72
2018-05-09T14:01:27.514Z,28.81
2018-05-09T14:03:58.390Z,28.75
2018-05-09T14:06:29.375Z,28.71
2018-05-09T14:09:00.374Z,28.67
2018-05-09T14:11:31.487Z,28.59
2018-05-09T14:14:02.346Z,28.66
2018-05-09T14:16:33.370Z,28.91
2018-05-09T14:19:04.412Z,29.15
2018-05-09T14:21:35.479Z,29.24
2018-05-09T14:24:06.322Z,29.44
2018-05-09T14:26:36.977Z,29.49
2018-05-09T14:29:07.658Z,29.62
2018-05-09T14:31:39.322Z,29.75
2018-05-09T14:34:09.011Z,29.67
2018-05-09T14:36:38.843Z,29.85
2018-05-09T14:39:09.598Z,29.94
2018-05-09T14:41:40.360Z,29.90
2018-05-09T14:44:11.440Z,29.86
2018-05-09T14:46:42.348Z,29.86
2018-05-09T14:49:13.434Z,29.93
2018-05-09T14:51:44.398Z,30.04
2018-05-09T14:54:16.261Z,30.13
2018-05-09T14:56:46.941Z,30.22
2018-05-09T14:59:17.673Z,30.24
2018-05-09T15:01:48.496Z,30.19
2018-05-09T15:04:19.100Z,30.05
2018-05-09T15:06:49.709Z,29.87
2018-05-09T15:09:20.507Z,29.69
2018-05-09T15:11:51.385Z,29.61
2018-05-09T15:14:22.350Z,29.58
2018-05-09T15:16:52.958Z,29.56
2018-05-09T15:19:23.778Z,29.48
2018-05-09T15:21:54.498Z,29.41
2018-05-09T15:24:25.497Z,29.29
2018-05-09T15:26:56.308Z,29.09
2018-05-09T15:29:27.414Z,28.83
2018-05-09T15:31:57.994Z,28.36
2018-05-09T15:34:28.718Z,26.81
2018-05-09T15:37:01.244Z,26.39
2018-05-09T15:39:30.962Z,26.00
2018-05-09T15:42:01.673Z,24.99
2018-05-09T15:44:32.462Z,24.61
2018-05-09T15:47:03.403Z,24.66
2018-05-09T15:49:34.453Z,24.67
2018-05-09T15:52:05.394Z,24.53
2018-05-09T15:54:36.384Z,24.20
2018-05-09T15:57:07.316Z,24.25
2018-05-09T15:59:37.983Z,23.92
2018-05-09T16:02:08.694Z,23.99
2018-05-09T16:04:39.570Z,23.83
2018-05-09T16:07:09.997Z,24.04
2018-05-09T16:09:40.730Z,23.81
2018-05-09T16:12:11.418Z,23.84
2018-05-09T16:14:42.392Z,23.38
2018-05-09T16:17:13.381Z,23.35
2018-05-09T16:19:44.597Z,23.28
2018-05-09T16:22:15.478Z,23.18
2018-05-09T16:24:46.775Z,23.14
2018-05-09T16:27:17.749Z,23.12
2018-05-09T16:29:48.537Z,23.15
2018-05-09T16:32:19.329Z,23.04
2018-05-09T16:34:50.441Z,22.95
2018-05-09T16:37:21.298Z,22.99
2018-05-09T16:39:52.505Z,23.01
2018-05-09T16:42:23.419Z,22.98
2018-05-09T16:44:54.441Z,23.01
2018-05-09T16:47:25.420Z,22.96
2018-05-09T16:49:56.434Z,22.66
2018-05-09T16:52:27.397Z,22.52
2018-05-09T16:54:58.398Z,22.50
2018-05-09T16:57:29.417Z,22.55
2018-05-09T17:00:00.463Z,22.57
2018-05-09T17:02:31.352Z,22.67
2018-05-09T17:05:02.451Z,22.63
2018-05-09T17:07:33.330Z,22.60
2018-05-09T17:10:04.154Z,22.61
2018-05-09T17:12:34.763Z,22.34
2018-05-09T17:15:05.587Z,22.26
2018-05-09T17:17:36.368Z,22.26
2018-05-09T17:20:07.450Z,22.26
2018-05-09T17:22:38.344Z,22.20
2018-05-09T17:25:09.083Z,22.19
2018-05-09T17:27:39.562Z,22.28
2018-05-09T17:30:10.454Z,22.33
2018-05-09T17:32:41.433Z,22.36
2018-05-09T17:35:12.965Z,22.40
2018-05-09T17:37:43.697Z,22.41
2018-05-09T17:40:14.503Z,22.36
2018-05-09T17:42:45.410Z,22.38
2018-05-09T17:45:17.167Z,22.41
2018-05-09T17:47:47.656Z,22.46
2018-05-09T17:50:18.498Z,22.47
2018-05-09T17:52:48.964Z,22.45
2018-05-09T17:55:19.725Z,22.41
2018-05-09T17:57:50.679Z,22.41
2018-05-09T18:00:21.536Z,22.35
2018-05-09T18:02:52.501Z,22.34
2018-05-09T18:05:23.403Z,22.34
2018-05-09T18:07:54.446Z,22.36
2018-05-09T18:10:25.562Z,22.38
2018-05-09T18:12:56.111Z,22.38
2018-05-09T18:15:26.902Z,22.33
2018-05-09T18:17:57.650Z,22.28
2018-05-09T18:20:28.523Z,22.23
2018-05-09T18:22:59.343Z,22.21
2018-05-09T18:25:30.750Z,22.19
2018-05-09T18:28:01.496Z,22.16
2018-05-09T18:30:32.464Z,22.00
2018-05-09T18:33:03.432Z,21.84
2018-05-09T18:35:34.377Z,21.76
2018-05-09T18:38:05.437Z,21.76
2018-05-09T18:40:36.442Z,21.76
2018-05-09T18:43:07.406Z,21.75
2018-05-09T18:45:38.483Z,21.78
2018-05-09T18:48:09.347Z,21.68
2018-05-09T18:50:40.515Z,21.20
2018-05-09T18:53:11.008Z,21.36
2018-05-09T18:55:41.846Z,21.35
2018-05-09T18:58:12.683Z,21.34
2018-05-09T19:00:42.584Z,21.37
2018-05-09T19:03:13.415Z,21.41
2018-05-09T19:05:44.588Z,21.43
2018-05-09T19:08:15.408Z,21.41
2018-05-09T19:10:51.563Z,21.40
2018-05-09T19:13:20.538Z,21.38
2018-05-09T19:15:49.557Z,21.39
2018-05-09T19:18:18.983Z,21.37
2018-05-09T19:20:49.581Z,21.33
2018-05-09T19:23:20.503Z,21.30
2018-05-09T19:25:51.093Z,21.29
2018-05-09T19:28:21.562Z,21.29
2018-05-09T19:30:52.555Z,21.33
2018-05-09T19:33:23.372Z,21.31
2018-05-09T19:35:59.812Z,21.24
2018-05-09T19:38:30.355Z,21.22
2018-05-09T19:41:00.733Z,21.22
2018-05-09T19:43:29.689Z,21.23
2018-05-09T19:45:58.665Z,21.16
2018-05-09T19:48:29.279Z,21.10
2018-05-09T19:51:00.224Z,21.13
2018-05-09T19:53:31.736Z,21.07
2018-05-09T19:56:03.424Z,20.96
2018-05-09T19:58:34.144Z,20.87
2018-05-09T20:01:04.928Z,20.90
2018-05-09T20:03:35.723Z,20.94
2018-05-09T20:06:06.501Z,20.97
2018-05-09T20:08:37.136Z,21.00
2018-05-09T20:11:08.013Z,20.89
2018-05-09T20:13:38.131Z,20.93
2018-05-09T20:16:09.852Z,21.01
2018-05-09T20:18:39.928Z,21.03
2018-05-09T20:21:10.662Z,21.04
2018-05-09T20:23:41.580Z,21.04
2018-05-09T20:26:12.430Z,21.02
2018-05-09T20:28:49.154Z,20.99
2018-05-09T20:31:34.752Z,20.97
2018-05-09T20:34:04.046Z,20.92
2018-05-09T20:36:33.026Z,20.88
2018-05-09T20:39:01.987Z,20.80
2018-05-09T20:41:31.078Z,20.76
2018-05-09T20:44:00.418Z,20.74
2018-05-09T20:46:29.463Z,20.70
2018-05-09T20:48:58.565Z,20.68
2018-05-09T20:51:38.872Z,20.66
2018-05-09T20:54:08.236Z,20.65
2018-05-09T20:56:37.483Z,20.64
2018-05-09T20:59:06.880Z,20.63
2018-05-09T21:01:48.112Z,20.62
2018-05-09T21:04:17.094Z,20.60
2018-05-09T21:06:46.129Z,20.55
2018-05-09T21:09:15.518Z,20.46
2018-05-09T21:11:56.099Z,20.21
2018-05-09T21:14:25.252Z,20.08
2018-05-09T21:16:54.211Z,20.08
2018-05-09T21:19:23.326Z,20.12
2018-05-09T21:21:52.396Z,20.18
2018-05-09T21:24:21.401Z,20.18
2018-05-09T21:26:50.409Z,20.19
2018-05-09T21:29:20.026Z,20.24
2018-05-09T21:31:49.310Z,20.21
2018-05-09T21:34:18.299Z,20.17
2018-05-09T21:36:47.769Z,20.13
2018-05-09T21:39:16.846Z,20.15
2018-05-09T21:41:46.572Z,19.99
2018-05-09T21:44:15.870Z,19.85
2018-05-09T21:46:44.856Z,19.67
2018-05-09T21:49:13.859Z,19.66
2018-05-09T21:51:43.026Z,19.67
2018-05-09T21:54:11.987Z,19.67
2018-05-09T21:56:42.817Z,19.73
2018-05-09T21:59:12.923Z,19.61
2018-05-09T22:01:43.783Z,19.64
2018-05-09T22:04:14.463Z,19.75
2018-05-09T22:06:45.356Z,19.85
2018-05-09T22:09:16.550Z,19.92
2018-05-09T22:11:47.450Z,19.97
2018-05-09T22:14:18.368Z,20.01
2018-05-09T22:16:49.406Z,20.05
2018-05-09T22:19:20.484Z,20.01
2018-05-09T22:21:51.439Z,20.05
2018-05-09T22:24:22.329Z,20.08
2018-05-09T22:26:53.514Z,20.09
2018-05-09T22:29:24.413Z,20.08
2018-05-09T22:31:56.151Z,20.10
2018-05-09T22:34:26.761Z,20.09
2018-05-09T22:36:57.340Z,20.08
2018-05-09T22:39:28.409Z,20.12
2018-05-09T22:41:59.509Z,20.10
2018-05-09T22:44:30.405Z,20.10
2018-05-09T22:47:01.410Z,20.10
2018-05-09T22:49:32.366Z,20.06
2018-05-09T22:52:03.417Z,19.98
2018-05-09T22:54:33.953Z,19.96
2018-05-09T22:57:04.730Z,19.97
2018-05-09T22:59:35.369Z,19.98
2018-05-09T23:02:06.012Z,19.98
2018-05-09T23:04:36.687Z,19.97
2018-05-09T23:07:07.495Z,19.96
2018-05-09T23:09:38.328Z,19.98
2018-05-09T23:12:09.374Z,20.01
2018-05-09T23:14:40.381Z,20.00
2018-05-09T23:17:11.550Z,19.84
2018-05-09T23:19:42.365Z,19.84
2018-05-09T23:22:13.451Z,19.81
2018-05-09T23:24:44.242Z,19.71
2018-05-09T23:27:15.869Z,19.75
2018-05-09T23:29:46.652Z,19.72
2018-05-09T23:32:17.443Z,19.74
2018-05-09T23:34:48.314Z,19.74
2018-05-09T23:37:19.472Z,19.77
2018-05-09T23:39:50.399Z,19.79
2018-05-09T23:42:21.446Z,19.79
2018-05-09T23:44:52.422Z,19.81
2018-05-09T23:47:23.457Z,19.81
2018-05-09T23:49:54.411Z,19.80
2018-05-09T23:52:25.494Z,19.81
2018-05-09T23:54:56.370Z,19.82
2018-05-09T23:57:27.466Z,19.82
2018-05-09T23:59:58.331Z,19.81
